Time;durP1;ratioP1;P1;durP2;ratioP2;P2;SDS_P1;SDS_P2;PMS_P1;PMS_P2;Temp;Humidity;BMP_temperature;BMP_pressure;BME280_temperature;BME280_humidity;BME280_pressure;Samples;Min_cycle;Max_cycle;Signal;HPM_P1;HPM_P2
2023/01/10 00:02:25;;;;;;;10.70;3.67;;;;;;;4.42;98.82;101193.16;4981718;28;20066;-70
2023/01/10 00:04:50;;;;;;;9.82;2.90;;;;;;;4.40;98.85;101192.19;4985659;28;20123;-70
2023/01/10 00:07:15;;;;;;;11.43;3.92;;;;;;;4.38;99.33;101212.75;4987500;28;20023;-70
2023/01/10 00:09:47;;;;;;;9.77;3.22;;;;;;;4.37;99.27;101229.03;4985112;28;20124;-70
2023/01/10 00:14:55;;;;;;;8.02;3.10;;;;;;;4.39;99.90;101223.97;4986348;28;20061;-70
2023/01/10 00:17:21;;;;;;;10.93;3.50;;;;;;;4.39;99.57;101227.44;4985406;28;20026;-70
2023/01/10 00:19:49;;;;;;;8.77;3.28;;;;;;;4.40;99.72;101230.91;4984913;28;20042;-70
2023/01/10 00:22:17;;;;;;;14.73;3.65;;;;;;;4.38;99.71;101232.53;4986587;28;20045;-70
2023/01/10 00:24:42;;;;;;;7.63;3.05;;;;;;;4.35;99.34;101238.41;4986007;28;20026;-70
2023/01/10 00:27:11;;;;;;;9.30;3.10;;;;;;;4.34;99.28;101252.09;4984854;28;20027;-70
2023/01/10 00:29:37;;;;;;;11.10;3.55;;;;;;;4.32;99.10;101252.00;4975734;28;20023;-70
2023/01/10 00:32:03;;;;;;;11.32;2.83;;;;;;;4.31;98.97;101262.25;5000532;28;20308;-70
2023/01/10 00:34:29;;;;;;;8.75;3.00;;;;;;;4.32;99.45;101269.19;4986584;28;20089;-70
2023/01/10 00:36:55;;;;;;;9.82;3.25;;;;;;;4.30;99.49;101273.34;4986620;28;20027;-70
2023/01/10 00:39:20;;;;;;;14.63;3.53;;;;;;;4.26;99.21;101276.56;4984547;28;20542;-70
2023/01/10 00:44:29;;;;;;;8.85;2.97;;;;;;;4.21;99.35;101280.59;4984014;28;20105;-70
2023/01/10 00:46:55;;;;;;;10.50;3.35;;;;;;;4.18;99.28;101281.28;4986266;28;20192;-64
2023/01/10 00:49:20;;;;;;;7.88;3.10;;;;;;;4.16;99.38;101285.50;4985044;28;20033;-64
2023/01/10 00:51:46;;;;;;;12.32;3.40;;;;;;;4.13;99.32;101281.03;4984817;28;20038;-64
2023/01/10 00:54:14;;;;;;;13.75;3.60;;;;;;;4.11;99.47;101279.16;4984783;28;20034;-63
2023/01/10 00:56:42;;;;;;;10.05;3.17;;;;;;;4.07;99.75;101275.53;4982984;28;20173;-64
2023/01/10 00:59:13;;;;;;;10.68;3.55;;;;;;;4.06;99.85;101283.19;4984558;28;20018;-64
2023/01/10 01:01:39;;;;;;;8.98;3.03;;;;;;;4.05;100.00;101287.44;4983382;28;20041;-64
2023/01/10 01:04:04;;;;;;;11.85;3.60;;;;;;;4.04;100.00;101283.13;4984426;28;20026;-64
2023/01/10 01:06:29;;;;;;;10.40;3.10;;;;;;;4.03;100.00;101291.63;4984018;28;20209;-64
2023/01/10 01:08:58;;;;;;;10.02;3.53;;;;;;;4.02;100.00;101289.84;4985304;28;20055;-64
2023/01/10 01:11:24;;;;;;;11.57;3.55;;;;;;;4.04;100.00;101300.25;4983525;28;20061;-63
2023/01/10 01:13:49;;;;;;;11.40;3.30;;;;;;;4.05;100.00;101309.78;4983092;28;20054;-64
2023/01/10 01:16:16;;;;;;;11.77;3.17;;;;;;;4.07;100.00;101313.31;4982648;28;20026;-70
2023/01/10 01:18:41;;;;;;;12.80;3.40;;;;;;;4.07;100.00;101319.38;4985449;28;20209;-70
2023/01/10 01:21:07;;;;;;;9.93;3.33;;;;;;;4.08;100.00;101318.56;4984599;28;20030;-70
2023/01/10 01:23:35;;;;;;;9.57;3.10;;;;;;;4.08;100.00;101317.69;4984493;28;20090;-70
2023/01/10 01:26:05;;;;;;;11.57;3.40;;;;;;;4.09;100.00;101319.47;4984754;28;20046;-70
2023/01/10 01:28:30;;;;;;;11.23;3.58;;;;;;;4.08;100.00;101322.84;4984538;28;20022;-70
2023/01/10 01:30:55;;;;;;;13.00;3.67;;;;;;;4.06;100.00;101327.03;4982905;28;20030;-70
2023/01/10 01:33:21;;;;;;;10.25;4.03;;;;;;;4.05;100.00;101327.81;4984943;28;20014;-70
2023/01/10 01:35:50;;;;;;;11.25;4.03;;;;;;;4.05;100.00;101325.25;4984954;28;20113;-70
2023/01/10 01:38:18;;;;;;;10.55;4.88;;;;;;;4.05;100.00;101333.84;4984428;28;20077;-70
2023/01/10 01:40:44;;;;;;;13.48;5.65;;;;;;;4.05;100.00;101335.56;4984327;28;20046;-70
2023/01/10 01:44:17;;;;;;;15.05;6.72;;;;;;;4.07;100.00;101345.16;4984920;28;20030;-71
2023/01/10 01:46:48;;;;;;;19.27;7.45;;;;;;;4.12;100.00;101346.31;4949695;28;20138;-64
2023/01/10 01:49:20;;;;;;;16.30;7.30;;;;;;;4.14;100.00;101349.88;5002577;28;20335;-64
2023/01/10 01:51:55;;;;;;;15.98;7.90;;;;;;;4.17;100.00;101359.47;4997961;28;20038;-64
2023/01/10 01:54:25;;;;;;;17.75;7.97;;;;;;;4.20;100.00;101359.66;4982781;28;20019;-63
2023/01/10 01:56:55;;;;;;;19.13;7.70;;;;;;;4.23;100.00;101359.84;4985334;28;20023;-64
2023/01/10 01:59:29;;;;;;;17.92;7.80;;;;;;;4.25;100.00;101362.50;4985375;28;20078;-64
2023/01/10 02:02:12;;;;;;;18.42;7.45;;;;;;;4.26;100.00;101362.59;4983603;28;20033;-63
2023/01/10 02:04:48;;;;;;;14.73;6.90;;;;;;;4.29;100.00;101373.06;4984295;28;20014;-64
2023/01/10 02:07:14;;;;;;;15.02;6.28;;;;;;;4.31;100.00;101373.16;4986364;28;20277;-64
2023/01/10 02:09:50;;;;;;;14.93;5.80;;;;;;;4.33;100.00;101363.81;4985981;28;20030;-64
2023/01/10 02:12:16;;;;;;;12.55;5.93;;;;;;;4.34;100.00;101366.50;4981354;28;20046;-63
2023/01/10 02:14:48;;;;;;;17.13;5.20;;;;;;;4.37;100.00;101370.94;4982635;28;20050;-64
2023/01/10 02:17:13;;;;;;;11.68;4.57;;;;;;;4.38;100.00;101377.88;4983568;28;20069;-63
2023/01/10 02:19:59;;;;;;;16.98;5.75;;;;;;;4.38;100.00;101377.88;4979161;28;20022;-63
2023/01/10 02:22:38;;;;;;;17.52;4.57;;;;;;;4.39;100.00;101383.91;4984468;28;20030;-64
2023/01/10 02:25:22;;;;;;;;;;;;;;;4.41;100.00;101380.63;4982899;28;20269;-63
2023/01/10 02:28:06;;;;;;;11.27;4.40;;;;;;;4.41;100.00;101377.16;4977469;28;19902;-64
2023/01/10 02:30:50;;;;;;;13.02;4.40;;;;;;;4.39;100.00;101377.09;4983318;28;20212;-64
2023/01/10 02:33:24;;;;;;;11.95;3.92;;;;;;;4.40;100.00;101381.41;4983518;28;20046;-64
2023/01/10 02:36:08;;;;;;;10.52;4.05;;;;;;;4.42;100.00;101373.75;4982458;28;20265;-63
2023/01/10 02:39:01;;;;;;;15.02;3.80;;;;;;;4.42;100.00;101373.75;4981669;28;20033;-64
2023/01/10 02:41:33;;;;;;;11.32;3.60;;;;;;;4.40;100.00;101373.69;4980481;28;20014;-64
2023/01/10 02:44:08;;;;;;;13.60;3.83;;;;;;;4.41;100.00;101378.03;4979809;28;20023;-64
2023/01/10 02:46:36;;;;;;;13.68;3.53;;;;;;;4.42;100.00;101377.25;4982124;28;20034;-63
2023/01/10 02:49:10;;;;;;;10.17;3.23;;;;;;;4.43;100.00;101380.72;4983565;28;20385;-63
2023/01/10 02:51:35;;;;;;;9.65;3.47;;;;;;;4.42;100.00;101384.09;4980741;28;20041;-63
2023/01/10 02:54:24;;;;;;;11.52;3.63;;;;;;;4.39;100.00;101387.41;4982698;28;20245;-64
2023/01/10 02:57:12;;;;;;;11.00;3.70;;;;;;;4.38;100.00;101392.47;4982378;28;20228;-64
2023/01/10 03:00:20;;;;;;;11.27;3.22;;;;;;;4.34;100.00;101400.03;4981159;28;20273;-64
2023/01/10 03:03:31;;;;;;;11.48;3.50;;;;;;;4.31;100.00;101398.97;4982829;28;20049;-64
2023/01/10 03:06:16;;;;;;;11.43;3.38;;;;;;;4.26;100.00;101396.13;4995462;28;20320;-64
2023/01/10 03:09:24;;;;;;;12.40;3.50;;;;;;;4.23;100.00;101400.19;4982317;28;20022;-64
2023/01/10 03:11:56;;;;;;;10.20;2.83;;;;;;;4.20;100.00;101408.66;4982114;28;20035;-64
2023/01/10 03:14:30;;;;;;;10.43;3.13;;;;;;;4.18;100.00;101415.41;4982208;28;20033;-64
2023/01/10 03:16:59;;;;;;;10.60;3.05;;;;;;;4.15;100.00;101428.13;4993122;28;20018;-64
2023/01/10 03:19:41;;;;;;;7.68;2.80;;;;;;;4.15;100.00;101434.16;4979946;28;20025;-64
2023/01/10 03:22:12;;;;;;;9.15;2.88;;;;;;;4.12;100.00;101436.56;4982967;28;20026;-64
2023/01/10 03:24:43;;;;;;;12.52;3.00;;;;;;;4.13;100.00;101442.63;4982993;28;20252;-64
2023/01/10 03:27:30;;;;;;;9.43;3.00;;;;;;;4.14;100.00;101449.56;4982455;28;20034;-64
2023/01/10 03:30:13;;;;;;;12.32;3.03;;;;;;;4.15;100.00;101456.50;4982562;28;20066;-64
2023/01/10 03:32:43;;;;;;;9.80;2.78;;;;;;;4.16;100.00;101445.41;4983047;28;20030;-64
2023/01/10 03:35:11;;;;;;;12.93;3.63;;;;;;;4.17;100.00;101453.22;4983594;28;20026;-63
2023/01/10 03:38:02;;;;;;;12.43;3.28;;;;;;;4.20;100.00;101449.94;4983729;28;20027;-64
2023/01/10 03:40:51;;;;;;;12.88;4.05;;;;;;;4.20;100.00;101449.94;4985940;28;20019;-64
2023/01/10 03:46:25;;;;;;;14.23;3.30;;;;;;;4.26;100.00;101465.78;4986633;28;20045;-64
2023/01/10 03:48:51;;;;;;;11.93;3.03;;;;;;;4.29;100.00;101459.91;4985548;28;20273;-64
2023/01/10 03:51:27;;;;;;;12.32;2.80;;;;;;;4.28;100.00;101464.16;4982805;28;20098;-63
2023/01/10 03:53:52;;;;;;;8.13;3.05;;;;;;;4.30;100.00;101472.91;4985573;28;20014;-64
2023/01/10 03:56:18;;;;;;;9.95;2.70;;;;;;;4.31;100.00;101473.78;4985994;28;20065;-70
2023/01/10 03:58:43;;;;;;;10.32;2.72;;;;;;;4.33;100.00;101478.22;4986144;28;20300;-70
2023/01/10 04:01:09;;;;;;;11.23;2.70;;;;;;;4.33;100.00;101478.22;4978535;28;20018;-70
2023/01/10 04:03:34;;;;;;;9.98;2.88;;;;;;;4.34;100.00;101485.19;4985654;28;20026;-70
2023/01/10 04:05:59;;;;;;;13.55;3.03;;;;;;;4.36;100.00;101485.28;4986907;28;20054;-70
2023/01/10 04:08:25;;;;;;;12.68;2.88;;;;;;;4.37;100.00;101493.88;4984447;28;20030;-70
2023/01/10 04:10:50;;;;;;;12.32;3.38;;;;;;;4.37;100.00;101496.47;4986567;28;20320;-70
2023/01/10 04:13:15;;;;;;;12.15;3.03;;;;;;;4.35;100.00;101502.41;4984185;28;20069;-70
2023/01/10 04:15:41;;;;;;;10.82;3.15;;;;;;;4.33;100.00;101504.03;4986523;28;20022;-70
2023/01/10 04:18:06;;;;;;;10.68;2.63;;;;;;;4.33;100.00;101500.53;4982799;28;20093;-70
2023/01/10 04:20:31;;;;;;;12.95;2.90;;;;;;;4.32;100.00;101507.41;4982784;28;20018;-70
2023/01/10 04:22:57;;;;;;;13.43;2.67;;;;;;;4.30;100.00;101514.16;4984938;28;20090;-70
2023/01/10 04:25:23;;;;;;;15.80;3.10;;;;;;;4.30;100.00;101515.84;4994636;28;20073;-70
2023/01/10 04:27:49;;;;;;;13.38;2.95;;;;;;;4.28;100.00;101520.03;4987375;28;20030;-70
2023/01/10 04:30:15;;;;;;;13.50;2.80;;;;;;;4.27;100.00;101520.81;4986820;28;20090;-70
2023/01/10 04:32:41;;;;;;;9.40;2.75;;;;;;;4.26;100.00;101521.59;4986594;28;20280;-70
2023/01/10 04:35:15;;;;;;;9.60;2.75;;;;;;;4.23;100.00;101519.75;4986744;28;20038;-70
2023/01/10 04:37:42;;;;;;;13.43;3.08;;;;;;;4.22;100.00;101523.13;4986206;28;20034;-70
2023/01/10 04:40:10;;;;;;;13.45;2.88;;;;;;;4.21;100.00;101510.13;4986954;28;20065;-70
2023/01/10 04:42:35;;;;;;;14.95;3.60;;;;;;;4.22;100.00;101511.94;4987408;28;20018;-70
2023/01/10 04:45:04;;;;;;;11.43;2.72;;;;;;;4.21;100.00;101500.69;4986823;28;20103;-70
2023/01/10 04:47:35;;;;;;;14.07;3.08;;;;;;;4.20;100.00;101508.34;4985816;28;20038;-70
2023/01/10 04:50:01;;;;;;;13.80;2.90;;;;;;;4.20;100.00;101517.00;4985231;28;20230;-70
2023/01/10 04:52:28;;;;;;;9.98;2.35;;;;;;;4.18;100.00;101523.72;4985966;28;20030;-70
2023/01/10 04:54:54;;;;;;;10.68;2.88;;;;;;;4.17;100.00;101533.19;4985456;28;20082;-70
2023/01/10 04:57:22;;;;;;;14.18;2.85;;;;;;;4.18;100.00;101534.06;4984346;28;20022;-70
2023/01/10 04:59:47;;;;;;;16.83;3.40;;;;;;;4.18;100.00;101528.91;4985929;28;20196;-70
2023/01/10 05:02:13;;;;;;;12.40;2.40;;;;;;;4.20;100.00;101528.97;4985320;28;20054;-70
2023/01/10 05:04:38;;;;;;;15.05;2.88;;;;;;;4.18;100.00;101514.28;4985377;28;20046;-70
2023/01/10 05:07:03;;;;;;;11.45;2.42;;;;;;;4.18;100.00;101516.88;4985907;28;20026;-71
2023/01/10 05:09:29;;;;;;;11.57;2.72;;;;;;;4.18;100.00;101518.56;4986105;28;20225;-70
2023/01/10 05:11:54;;;;;;;13.27;2.80;;;;;;;4.19;100.00;101528.09;4985787;28;20158;-70
2023/01/10 05:14:20;;;;;;;17.17;3.00;;;;;;;4.17;100.00;101533.19;4977457;28;20037;-70
2023/01/10 05:16:45;;;;;;;14.10;3.72;;;;;;;4.15;100.00;101544.19;4981612;28;20309;-70
2023/01/10 05:19:11;;;;;;;12.77;2.67;;;;;;;4.17;100.00;101552.91;4984583;28;20270;-70
2023/01/10 05:21:36;;;;;;;14.60;2.85;;;;;;;4.16;100.00;101569.19;4986150;28;20011;-70
2023/01/10 05:24:01;;;;;;;11.07;2.80;;;;;;;4.16;100.00;101574.34;4983564;28;20097;-70
2023/01/10 05:26:30;;;;;;;15.85;2.67;;;;;;;4.17;100.00;101579.59;4983261;28;20137;-64
2023/01/10 05:28:58;;;;;;;12.20;2.80;;;;;;;4.18;100.00;101573.63;4978529;28;20026;-64
2023/01/10 05:31:24;;;;;;;11.02;2.92;;;;;;;4.21;100.00;101570.34;4984610;28;20022;-64
2023/01/10 05:33:53;;;;;;;15.45;3.03;;;;;;;4.23;100.00;101578.19;4985606;28;20026;-64
2023/01/10 05:36:21;;;;;;;13.30;2.83;;;;;;;4.24;100.00;101574.81;4985060;28;20049;-64
2023/01/10 05:38:47;;;;;;;12.70;2.85;;;;;;;4.24;100.00;101575.69;4977940;28;20034;-64
2023/01/10 05:41:12;;;;;;;15.25;2.95;;;;;;;4.26;100.00;101586.09;4982080;28;20026;-64
2023/01/10 05:43:37;;;;;;;14.30;3.10;;;;;;;4.27;100.00;101581.06;4985901;28;20015;-64
2023/01/10 05:46:06;;;;;;;17.05;3.40;;;;;;;4.28;100.00;101579.38;4985591;28;20371;-64
2023/01/10 05:48:31;;;;;;;14.82;3.08;;;;;;;4.29;100.00;101589.78;4984804;28;20077;-64
2023/01/10 05:50:56;;;;;;;13.88;2.90;;;;;;;4.30;100.00;101596.72;4987380;28;20035;-64
2023/01/10 05:53:22;;;;;;;13.20;3.13;;;;;;;4.33;100.00;101601.16;4985462;28;20086;-64
2023/01/10 05:55:57;;;;;;;11.95;3.22;;;;;;;4.34;100.00;101602.94;4985051;28;20027;-64
2023/01/10 05:58:23;;;;;;;20.35;3.65;;;;;;;4.37;100.00;101610.00;4981654;28;20042;-70
2023/01/10 06:00:49;;;;;;;17.08;3.30;;;;;;;4.37;100.00;101616.03;4980770;28;20027;-70
2023/01/10 06:03:14;;;;;;;14.57;3.30;;;;;;;4.38;100.00;101614.38;4983367;28;20026;-70
2023/01/10 06:05:40;;;;;;;13.35;3.08;;;;;;;4.39;100.00;101613.53;4984253;28;20030;-70
2023/01/10 06:08:05;;;;;;;17.00;3.00;;;;;;;4.39;100.00;101608.38;4984771;28;20269;-70
2023/01/10 06:10:40;;;;;;;14.90;2.80;;;;;;;4.41;99.91;101619.72;4984936;28;20015;-70
2023/01/10 06:13:05;;;;;;;15.10;3.17;;;;;;;4.40;100.00;101615.34;4980426;28;20127;-70
2023/01/10 06:15:32;;;;;;;13.88;2.97;;;;;;;4.40;100.00;101607.59;4983926;28;20038;-70
2023/01/10 06:17:57;;;;;;;14.25;3.40;;;;;;;4.39;99.72;101610.97;4983498;28;20021;-70
2023/01/10 06:20:23;;;;;;;17.42;3.20;;;;;;;4.39;99.75;101610.97;4984105;28;20026;-70
2023/01/10 06:22:51;;;;;;;10.93;3.35;;;;;;;4.39;99.53;101617.03;4981055;28;20038;-70
2023/01/10 06:25:16;;;;;;;14.73;2.90;;;;;;;4.38;99.68;101619.53;4979691;28;20030;-70
2023/01/10 06:27:45;;;;;;;16.00;4.07;;;;;;;4.39;99.33;101621.28;4981909;28;20019;-70
2023/01/10 06:30:14;;;;;;;15.25;3.22;;;;;;;4.37;99.34;101621.19;4984519;28;20014;-70
2023/01/10 06:32:41;;;;;;;15.85;2.95;;;;;;;4.38;99.48;101633.31;4984460;28;20307;-70
2023/01/10 06:35:10;;;;;;;13.90;3.20;;;;;;;4.38;99.56;101635.00;4983707;28;20014;-70
2023/01/10 06:37:38;;;;;;;14.60;3.25;;;;;;;4.38;99.27;101633.31;4996633;28;20041;-70
2023/01/10 06:40:07;;;;;;;17.00;3.92;;;;;;;4.37;99.17;101631.50;4982563;28;20131;-70
2023/01/10 06:42:32;;;;;;;15.07;3.35;;;;;;;4.38;98.88;101635.00;4983220;28;20060;-70
2023/01/10 06:44:58;;;;;;;14.15;3.15;;;;;;;4.37;98.76;101640.94;4981951;28;20169;-70
2023/01/10 06:47:23;;;;;;;14.05;2.70;;;;;;;4.34;98.71;101632.25;4982228;28;20101;-70
2023/01/10 06:49:48;;;;;;;15.05;3.00;;;;;;;4.32;98.73;101641.56;4983160;28;20027;-70
2023/01/10 06:52:14;;;;;;;15.38;2.90;;;;;;;4.28;98.65;101649.91;4982501;28;20042;-70
2023/01/10 06:54:40;;;;;;;10.23;2.38;;;;;;;4.26;98.46;101643.75;4976981;28;20070;-70
2023/01/10 06:57:07;;;;;;;14.75;2.45;;;;;;;4.23;98.19;101655.56;4970525;28;20266;-70
2023/01/10 06:59:32;;;;;;;15.93;3.08;;;;;;;4.18;98.55;101665.59;4983493;28;20216;-70
2023/01/10 07:01:57;;;;;;;13.73;2.53;;;;;;;4.15;98.51;101671.44;4981415;28;20094;-70
2023/01/10 07:04:23;;;;;;;17.35;2.95;;;;;;;4.13;98.69;101664.44;4979301;28;20023;-70
2023/01/10 07:06:48;;;;;;;14.55;3.30;;;;;;;4.10;98.51;101669.38;4977956;28;20044;-64
2023/01/10 07:09:20;;;;;;;14.38;3.15;;;;;;;4.08;98.67;101681.28;4981834;28;20030;-64
2023/01/10 07:11:45;;;;;;;12.88;2.70;;;;;;;4.05;98.89;101681.97;4981947;28;20026;-64
2023/01/10 07:14:14;;;;;;;15.23;3.47;;;;;;;4.03;98.45;101686.16;4978676;28;20031;-64
2023/01/10 07:16:39;;;;;;;14.68;2.88;;;;;;;3.99;98.67;101692.78;4981259;28;20072;-64
2023/01/10 07:19:06;;;;;;;13.52;3.03;;;;;;;3.98;98.70;101684.97;4984064;28;20166;-63
2023/01/10 07:21:35;;;;;;;17.48;3.50;;;;;;;3.96;98.75;101695.19;4977528;28;20169;-64
2023/01/10 07:24:00;;;;;;;17.83;3.30;;;;;;;3.95;98.75;101698.56;4983809;28;20142;-64
2023/01/10 07:26:25;;;;;;;14.65;3.45;;;;;;;3.94;98.95;101695.88;4982760;28;20197;-64
2023/01/10 07:28:54;;;;;;;18.08;3.30;;;;;;;3.94;99.17;101703.59;4980892;28;20026;-63
2023/01/10 07:31:23;;;;;;;12.55;2.80;;;;;;;3.94;99.14;101719.06;4982943;28;20037;-64
2023/01/10 07:33:50;;;;;;;13.75;3.13;;;;;;;3.95;99.05;101723.44;4982771;28;20161;-64
2023/01/10 07:36:16;;;;;;;17.15;3.20;;;;;;;3.95;99.35;101726.03;4983676;28;20023;-64
2023/01/10 07:38:41;;;;;;;16.80;3.00;;;;;;;3.96;99.41;101741.59;4981891;28;20280;-64
2023/01/10 07:41:06;;;;;;;13.63;3.33;;;;;;;3.98;99.37;101745.19;4983567;28;20089;-64
2023/01/10 07:43:35;;;;;;;16.70;3.28;;;;;;;3.98;99.29;101746.84;4983147;28;20034;-64
2023/01/10 07:46:02;;;;;;;13.45;3.13;;;;;;;3.97;99.12;101740.81;4983396;28;20034;-63
2023/01/10 07:48:27;;;;;;;15.15;3.05;;;;;;;3.97;99.27;101739.94;4984224;28;20094;-64
2023/01/10 07:50:57;;;;;;;19.55;3.13;;;;;;;3.95;99.32;101737.25;4983909;28;20022;-64
2023/01/10 07:53:26;;;;;;;15.52;3.33;;;;;;;3.94;99.09;101745.78;4982127;28;20081;-64
2023/01/10 07:55:52;;;;;;;17.65;2.92;;;;;;;3.94;98.97;101750.94;4984187;28;20242;-64
2023/01/10 07:58:20;;;;;;;22.38;3.85;;;;;;;3.93;99.26;101748.25;4983975;28;20222;-64
2023/01/10 08:00:48;;;;;;;14.48;3.00;;;;;;;3.94;99.04;101756.09;4984543;28;20082;-64
2023/01/10 08:03:16;;;;;;;15.43;2.90;;;;;;;3.94;98.93;101744.84;4983026;28;20065;-64
2023/01/10 08:05:42;;;;;;;17.13;3.20;;;;;;;3.93;99.42;101745.69;4982946;28;20113;-64
2023/01/10 08:08:15;;;;;;;16.35;3.05;;;;;;;3.94;99.80;101745.78;4983810;28;20040;-64
2023/01/10 08:10:40;;;;;;;18.88;3.35;;;;;;;3.94;99.25;101750.00;4984308;28;20026;-63
2023/01/10 08:13:06;;;;;;;17.08;2.90;;;;;;;3.93;99.01;101749.13;4983381;28;20026;-64
2023/01/10 08:15:31;;;;;;;12.25;2.90;;;;;;;3.92;98.69;101752.50;4982052;28;20027;-64
2023/01/10 08:18:01;;;;;;;16.20;2.85;;;;;;;3.90;98.69;101748.06;4983757;28;20030;-64
2023/01/10 08:20:29;;;;;;;14.27;3.22;;;;;;;3.89;99.05;101754.00;4983680;28;20163;-64
2023/01/10 08:22:58;;;;;;;15.13;3.13;;;;;;;3.88;98.94;101749.63;4977059;28;20046;-63
2023/01/10 08:25:25;;;;;;;13.15;2.65;;;;;;;3.86;98.65;101746.06;4982098;28;20034;-64
2023/01/10 08:27:50;;;;;;;15.20;3.13;;;;;;;3.87;98.65;101748.75;4982080;28;20031;-64
2023/01/10 08:30:18;;;;;;;14.02;3.05;;;;;;;3.86;98.74;101756.38;4998036;28;20068;-64
2023/01/10 08:32:44;;;;;;;13.10;3.38;;;;;;;3.83;98.60;101755.38;4981640;28;20046;-63
2023/01/10 08:35:10;;;;;;;16.05;2.90;;;;;;;3.85;98.99;101755.47;4984424;28;20022;-63
2023/01/10 08:37:38;;;;;;;13.57;2.92;;;;;;;3.85;98.95;101760.63;4985656;28;20031;-63
2023/01/10 08:40:04;;;;;;;18.58;3.05;;;;;;;3.89;99.07;101751.41;4987382;28;20065;-64
2023/01/10 08:42:32;;;;;;;17.85;3.20;;;;;;;3.91;99.34;101754.97;4982195;28;20030;-64
2023/01/10 08:45:01;;;;;;;14.85;3.40;;;;;;;3.93;98.52;101754.28;4983251;28;20129;-64
2023/01/10 08:47:30;;;;;;;15.60;3.17;;;;;;;3.97;98.89;101745.09;4986958;28;20336;-64
2023/01/10 08:49:56;;;;;;;16.25;3.25;;;;;;;3.99;98.62;101748.66;4986322;28;20243;-64
2023/01/10 08:52:24;;;;;;;15.02;3.05;;;;;;;4.00;98.43;101751.31;4987009;28;20069;-64
2023/01/10 08:54:52;;;;;;;16.05;3.10;;;;;;;4.02;98.38;101745.38;4986317;28;20094;-64
2023/01/10 08:57:17;;;;;;;12.52;3.13;;;;;;;4.04;98.14;101743.78;4985732;28;20019;-64
2023/01/10 08:59:43;;;;;;;14.25;3.10;;;;;;;4.06;98.24;101749.94;4986780;28;20150;-64
2023/01/10 09:02:14;;;;;;;14.68;2.92;;;;;;;4.09;98.58;101732.97;4984008;28;20022;-64
2023/01/10 09:04:39;;;;;;;21.65;3.22;;;;;;;4.12;98.14;101752.91;4985544;28;20265;-64
2023/01/10 09:07:04;;;;;;;12.15;2.55;;;;;;;4.11;97.83;101733.97;4986803;28;20026;-70
2023/01/10 09:09:33;;;;;;;14.13;2.95;;;;;;;4.13;98.18;101731.50;4986545;28;20019;-70
2023/01/10 09:11:58;;;;;;;13.38;3.58;;;;;;;4.14;97.82;101735.84;4985722;28;20085;-70
2023/01/10 09:14:23;;;;;;;11.02;2.75;;;;;;;4.16;97.92;101731.69;4996458;28;20034;-71
2023/01/10 09:16:50;;;;;;;15.45;3.20;;;;;;;4.18;97.85;101733.53;4986072;28;20276;-71
2023/01/10 09:19:16;;;;;;;13.60;3.10;;;;;;;4.20;97.81;101731.09;4984589;28;20029;-72
2023/01/10 09:21:41;;;;;;;18.25;3.15;;;;;;;4.23;97.86;101733.88;4986649;28;20265;-71
2023/01/10 09:24:07;;;;;;;14.45;3.10;;;;;;;4.26;98.09;101734.06;4983693;28;20253;-70
2023/01/10 09:26:32;;;;;;;15.02;2.65;;;;;;;4.27;98.04;101730.69;4985196;28;20276;-71
2023/01/10 09:28:58;;;;;;;13.68;3.15;;;;;;;4.28;97.62;101727.28;4986275;28;20097;-70
2023/01/10 09:31:23;;;;;;;11.40;2.70;;;;;;;4.31;97.79;101736.91;4983006;28;20197;-70
2023/01/10 09:33:48;;;;;;;13.23;2.85;;;;;;;4.33;97.60;101735.31;4985819;28;20018;-70
2023/01/10 09:36:14;;;;;;;17.23;3.08;;;;;;;4.34;97.61;101727.69;4983325;28;20037;-71
2023/01/10 09:38:40;;;;;;;9.90;2.70;;;;;;;4.37;97.56;101732.13;4983414;28;20296;-71
2023/01/10 09:41:24;;;;;;;16.30;3.20;;;;;;;4.41;97.41;101734.13;4976946;28;20033;-71
2023/01/10 09:44:01;;;;;;;14.63;2.80;;;;;;;4.44;97.41;101734.31;4980753;28;20039;-70
2023/01/10 09:46:41;;;;;;;15.55;2.90;;;;;;;4.48;97.20;101731.13;4993784;28;20023;-70
2023/01/10 09:49:46;;;;;;;17.15;2.55;;;;;;;4.51;96.89;101738.19;4978671;28;20046;-70
2023/01/10 09:52:22;;;;;;;10.88;2.63;;;;;;;4.56;96.79;101731.59;4982384;28;20114;-70
2023/01/10 09:54:51;;;;;;;9.45;2.55;;;;;;;4.60;96.63;101736.16;4981192;28;20141;-70
2023/01/10 09:57:20;;;;;;;13.43;2.80;;;;;;;4.66;96.47;101733.06;4975155;28;20049;-70
2023/01/10 09:59:50;;;;;;;13.05;2.58;;;;;;;4.66;96.32;101726.22;4973087;28;20330;-70
2023/01/10 10:02:30;;;;;;;13.25;2.40;;;;;;;4.70;96.28;101720.44;4975055;28;20026;-71
2023/01/10 10:05:05;;;;;;;13.90;2.47;;;;;;;4.73;96.48;101727.47;4979282;28;20069;-70
2023/01/10 10:07:31;;;;;;;14.15;2.85;;;;;;;4.78;95.30;101726.09;4976902;28;20046;-71
2023/01/10 10:09:57;;;;;;;10.93;2.90;;;;;;;4.81;95.92;101735.72;4981588;28;20154;-70
2023/01/10 10:12:56;;;;;;;17.45;2.75;;;;;;;4.86;96.10;101731.72;4985015;28;20014;-71
2023/01/10 10:15:45;;;;;;;11.30;2.33;;;;;;;4.90;95.40;101720.78;4984646;28;20324;-70
2023/01/10 10:18:26;;;;;;;12.05;2.75;;;;;;;4.94;95.50;101715.00;4981069;28;20026;-70
2023/01/10 10:21:08;;;;;;;16.80;2.88;;;;;;;4.96;95.34;101710.81;4982628;28;20090;-70
2023/01/10 10:24:01;;;;;;;12.07;2.83;;;;;;;5.00;94.87;101711.91;4982464;28;20240;-71
2023/01/10 10:26:47;;;;;;;13.10;2.78;;;;;;;5.04;95.26;101708.72;4980473;28;20241;-71
2023/01/10 10:29:19;;;;;;;9.98;3.03;;;;;;;5.08;94.94;101712.34;4976711;28;20030;-71
2023/01/10 10:32:07;;;;;;;9.35;2.50;;;;;;;5.11;95.50;101704.78;4981319;28;20069;-71
2023/01/10 10:34:36;;;;;;;13.20;2.65;;;;;;;5.14;95.58;101699.78;4977006;28;20141;-71
2023/01/10 10:37:16;;;;;;;17.27;2.92;;;;;;;5.16;95.66;101690.47;4978011;28;20042;-71
2023/01/10 10:39:46;;;;;;;15.70;3.05;;;;;;;5.19;95.05;101693.22;4978868;28;20027;-71
2023/01/10 10:42:15;;;;;;;12.80;2.88;;;;;;;5.21;94.95;101686.44;4976000;28;20049;-71
2023/01/10 10:44:47;;;;;;;12.73;2.33;;;;;;;5.24;95.38;101676.28;4977440;28;20316;-71
2023/01/10 10:47:18;;;;;;;13.38;2.65;;;;;;;5.26;94.86;101673.78;4974831;28;20014;-71
2023/01/10 10:50:28;;;;;;;12.95;2.63;;;;;;;5.28;95.19;101667.91;4979779;28;20027;-71
2023/01/10 10:52:54;;;;;;;12.07;2.88;;;;;;;5.31;95.25;101662.91;4969664;28;20038;-71
2023/01/10 10:55:32;;;;;;;12.73;2.70;;;;;;;5.33;94.84;101661.34;4977750;28;20390;-71
2023/01/10 10:57:57;;;;;;;12.75;2.80;;;;;;;5.35;94.92;101657.13;4978148;28;20033;-72
2023/01/10 11:00:24;;;;;;;15.98;3.05;;;;;;;5.38;94.48;101654.72;4982182;28;20015;-71
2023/01/10 11:02:54;;;;;;;11.68;2.63;;;;;;;5.43;95.29;101656.69;4978000;28;20026;-71
2023/01/10 11:05:30;;;;;;;12.02;2.90;;;;;;;5.45;95.34;101649.94;4983407;28;20038;-71
2023/01/10 11:08:04;;;;;;;14.65;2.63;;;;;;;5.48;95.18;101635.47;4983525;28;20251;-71
2023/01/10 11:10:34;;;;;;;15.63;2.92;;;;;;;5.52;94.61;101639.13;4983561;28;20019;-71
2023/01/10 11:13:12;;;;;;;8.57;2.58;;;;;;;5.55;94.96;101642.78;4983887;28;20240;-71
2023/01/10 11:15:45;;;;;;;13.95;3.08;;;;;;;5.56;93.92;101631.63;4982507;28;20018;-70
2023/01/10 11:18:19;;;;;;;14.40;3.22;;;;;;;5.58;94.84;101624.84;4980692;28;20154;-64
2023/01/10 11:21:10;;;;;;;9.63;2.47;;;;;;;5.61;94.41;101637.06;4980019;28;20022;-65
2023/01/10 11:23:42;;;;;;;16.33;2.83;;;;;;;5.62;94.09;101628.50;4982706;28;20030;-64
2023/01/10 11:26:22;;;;;;;14.18;3.08;;;;;;;5.64;93.98;101624.31;4983543;28;20150;-64
2023/01/10 11:28:47;;;;;;;15.25;3.28;;;;;;;5.67;93.38;101621.88;4982543;28;20261;-64
2023/01/10 11:31:13;;;;;;;11.82;3.00;;;;;;;5.69;93.56;101629.72;4983967;28;20022;-64
2023/01/10 11:33:40;;;;;;;13.88;2.92;;;;;;;5.73;93.91;101631.69;4983118;28;20038;-64
2023/01/10 11:36:09;;;;;;;13.20;3.17;;;;;;;5.74;93.80;101624.00;4991203;28;20280;-64
2023/01/10 11:38:34;;;;;;;10.77;3.25;;;;;;;5.78;93.56;101621.59;4983565;28;20030;-64
2023/01/10 11:41:01;;;;;;;13.50;3.15;;;;;;;5.81;94.00;101625.25;4984519;28;20011;-64
2023/01/10 11:43:35;;;;;;;16.35;3.65;;;;;;;5.82;93.74;101623.53;4983089;28;20031;-64
2023/01/10 11:46:04;;;;;;;13.68;3.80;;;;;;;5.83;93.29;101620.16;4984882;28;20058;-64